Skip Navigation LinksHome page > Weather > Current weather Skip Navigation Links

Current Weather

Unalakleet, Alaska

For information only: do not use for flight planning or navigation.
Latest weather
Observation time Thursday, January 27, 2022 7:56 PM AKST
Local time Thursday, January 27, 2022 8:41 PM AKST
Flight conditions Visual Meteorological Conditions
Winds
Wind direction East-Southeast (120°)
Wind speed 7 mph
Visibility 10 mi.
Sky condition
Ceiling unlimited
Sky clear
Temperature -24°F
Dewpoint -29°F
Altimeter 30.28 in.Hg
Derived measurements
Relative humidity 76%
Wind chill -42°F
Density altitude -6460 ft.
Sea-level pressure 30.29 in.Hg
Remarks
Fully automated report.
Automated weather observing station with precipitation discriminator.
Freezing rain sensor not operating.
METAR PAUN 280456Z AUTO 12006KT 10SM CLR M31/M34 A3028 RMK AO2 SLP259 T13111339 FZRANO

Settings

Location code

InnerDrive.Weather 4.0.6770.0 Release CLR 4.0.30319.42000
Copyright ©2018 Inner Drive Technology. All rights reserved. Portions Copyright ©1986-2018 David Braverman.

Find weather

Site navigation


Skip Navigation Links

Place info

Page info

PayPal - The safer, easier way to pay online!

Return home.

Copyright ©2022 Inner Drive Technology. Purveyors of fine, hand-crafted computer software. Page printed 2022-01-28T05:41:57 UTC.